sensor_id;sensor_type;location;lat;lon;timestamp;P1;durP1;ratioP1;P2;durP2;ratioP2
39918;SDS011;25589;51.552;13.424;2024-01-10T00:01:42;71.47;;;30.30;;
39918;SDS011;25589;51.552;13.424;2024-01-10T00:04:07;74.45;;;29.75;;
39918;SDS011;25589;51.552;13.424;2024-01-10T00:06:33;69.78;;;28.65;;
39918;SDS011;25589;51.552;13.424;2024-01-10T00:08:58;73.75;;;27.67;;
39918;SDS011;25589;51.552;13.424;2024-01-10T00:11:24;67.60;;;28.98;;
39918;SDS011;25589;51.552;13.424;2024-01-10T00:13:49;73.18;;;29.67;;
39918;SDS011;25589;51.552;13.424;2024-01-10T00:16:15;67.68;;;28.27;;
39918;SDS011;25589;51.552;13.424;2024-01-10T00:18:41;69.32;;;29.38;;
39918;SDS011;25589;51.552;13.424;2024-01-10T00:21:07;67.75;;;26.40;;
39918;SDS011;25589;51.552;13.424;2024-01-10T00:23:33;65.55;;;27.42;;
39918;SDS011;25589;51.552;13.424;2024-01-10T00:25:58;72.88;;;28.90;;
39918;SDS011;25589;51.552;13.424;2024-01-10T00:28:25;71.68;;;28.38;;
39918;SDS011;25589;51.552;13.424;2024-01-10T00:30:50;73.45;;;28.52;;
39918;SDS011;25589;51.552;13.424;2024-01-10T00:33:16;67.63;;;27.88;;
39918;SDS011;25589;51.552;13.424;2024-01-10T00:35:42;70.20;;;28.77;;
39918;SDS011;25589;51.552;13.424;2024-01-10T00:38:08;72.32;;;29.88;;
39918;SDS011;25589;51.552;13.424;2024-01-10T00:40:34;69.72;;;29.17;;
39918;SDS011;25589;51.552;13.424;2024-01-10T00:42:59;72.32;;;30.08;;
39918;SDS011;25589;51.552;13.424;2024-01-10T00:45:25;70.10;;;28.38;;
39918;SDS011;25589;51.552;13.424;2024-01-10T00:47:51;67.70;;;28.40;;
39918;SDS011;25589;51.552;13.424;2024-01-10T00:50:16;79.97;;;29.58;;
39918;SDS011;25589;51.552;13.424;2024-01-10T00:52:43;75.15;;;28.77;;
39918;SDS011;25589;51.552;13.424;2024-01-10T00:55:09;67.93;;;28.60;;
39918;SDS011;25589;51.552;13.424;2024-01-10T00:57:35;68.78;;;29.10;;
39918;SDS011;25589;51.552;13.424;2024-01-10T01:00:00;66.43;;;30.80;;
39918;SDS011;25589;51.552;13.424;2024-01-10T01:02:26;68.70;;;28.73;;
39918;SDS011;25589;51.552;13.424;2024-01-10T01:04:52;70.35;;;27.98;;
39918;SDS011;25589;51.552;13.424;2024-01-10T01:07:18;65.63;;;28.73;;
39918;SDS011;25589;51.552;13.424;2024-01-10T01:09:43;67.30;;;28.45;;
39918;SDS011;25589;51.552;13.424;2024-01-10T01:12:09;68.90;;;26.52;;
39918;SDS011;25589;51.552;13.424;2024-01-10T01:14:34;73.55;;;29.90;;
39918;SDS011;25589;51.552;13.424;2024-01-10T01:17:00;72.20;;;29.20;;
39918;SDS011;25589;51.552;13.424;2024-01-10T01:19:26;70.95;;;28.05;;
39918;SDS011;25589;51.552;13.424;2024-01-10T01:21:51;70.38;;;29.20;;
39918;SDS011;25589;51.552;13.424;2024-01-10T01:24:17;69.38;;;28.77;;
39918;SDS011;25589;51.552;13.424;2024-01-10T01:26:42;72.20;;;30.15;;
39918;SDS011;25589;51.552;13.424;2024-01-10T01:29:08;67.65;;;29.83;;
39918;SDS011;25589;51.552;13.424;2024-01-10T01:31:34;69.45;;;27.77;;
39918;SDS011;25589;51.552;13.424;2024-01-10T01:34:00;72.30;;;28.60;;
39918;SDS011;25589;51.552;13.424;2024-01-10T01:36:26;74.00;;;29.40;;
39918;SDS011;25589;51.552;13.424;2024-01-10T01:38:51;69.53;;;29.05;;
39918;SDS011;25589;51.552;13.424;2024-01-10T01:41:17;67.32;;;27.65;;
39918;SDS011;25589;51.552;13.424;2024-01-10T01:43:43;69.28;;;27.80;;
39918;SDS011;25589;51.552;13.424;2024-01-10T01:46:09;71.72;;;31.05;;
39918;SDS011;25589;51.552;13.424;2024-01-10T01:48:35;77.50;;;29.83;;
39918;SDS011;25589;51.552;13.424;2024-01-10T01:51:02;68.03;;;28.95;;
39918;SDS011;25589;51.552;13.424;2024-01-10T01:53:33;67.68;;;29.27;;
39918;SDS011;25589;51.552;13.424;2024-01-10T01:56:00;70.50;;;27.80;;
39918;SDS011;25589;51.552;13.424;2024-01-10T01:58:30;65.00;;;28.75;;
39918;SDS011;25589;51.552;13.424;2024-01-10T02:00:56;75.68;;;29.95;;
39918;SDS011;25589;51.552;13.424;2024-01-10T02:03:22;81.18;;;29.88;;
39918;SDS011;25589;51.552;13.424;2024-01-10T02:05:47;75.40;;;29.83;;
39918;SDS011;25589;51.552;13.424;2024-01-10T02:08:13;74.20;;;28.52;;
39918;SDS011;25589;51.552;13.424;2024-01-10T02:10:39;76.63;;;28.73;;
39918;SDS011;25589;51.552;13.424;2024-01-10T02:13:05;77.18;;;30.17;;
39918;SDS011;25589;51.552;13.424;2024-01-10T02:15:33;71.95;;;29.48;;
39918;SDS011;25589;51.552;13.424;2024-01-10T02:18:00;75.93;;;29.20;;
39918;SDS011;25589;51.552;13.424;2024-01-10T02:20:26;76.00;;;29.38;;
39918;SDS011;25589;51.552;13.424;2024-01-10T02:22:51;78.78;;;30.88;;
39918;SDS011;25589;51.552;13.424;2024-01-10T02:25:17;75.57;;;30.98;;
39918;SDS011;25589;51.552;13.424;2024-01-10T02:27:43;73.05;;;29.33;;
39918;SDS011;25589;51.552;13.424;2024-01-10T02:30:09;76.43;;;31.67;;
39918;SDS011;25589;51.552;13.424;2024-01-10T02:32:36;72.47;;;30.70;;
39918;SDS011;25589;51.552;13.424;2024-01-10T02:35:02;68.72;;;28.40;;
39918;SDS011;25589;51.552;13.424;2024-01-10T02:37:27;75.57;;;29.05;;
39918;SDS011;25589;51.552;13.424;2024-01-10T02:39:53;72.82;;;29.45;;
39918;SDS011;25589;51.552;13.424;2024-01-10T02:42:19;67.60;;;26.30;;
39918;SDS011;25589;51.552;13.424;2024-01-10T02:44:45;75.13;;;30.00;;
39918;SDS011;25589;51.552;13.424;2024-01-10T02:47:11;68.90;;;29.85;;
39918;SDS011;25589;51.552;13.424;2024-01-10T02:49:37;74.60;;;30.08;;
39918;SDS011;25589;51.552;13.424;2024-01-10T02:52:03;76.47;;;31.20;;
39918;SDS011;25589;51.552;13.424;2024-01-10T02:54:29;72.70;;;29.75;;
39918;SDS011;25589;51.552;13.424;2024-01-10T02:56:54;78.50;;;30.13;;
39918;SDS011;25589;51.552;13.424;2024-01-10T02:59:20;67.95;;;28.65;;
39918;SDS011;25589;51.552;13.424;2024-01-10T03:01:45;66.57;;;27.30;;
39918;SDS011;25589;51.552;13.424;2024-01-10T03:04:11;72.78;;;30.15;;
39918;SDS011;25589;51.552;13.424;2024-01-10T03:06:36;76.60;;;29.15;;
39918;SDS011;25589;51.552;13.424;2024-01-10T03:09:02;75.45;;;30.25;;
39918;SDS011;25589;51.552;13.424;2024-01-10T03:11:28;75.80;;;29.05;;
39918;SDS011;25589;51.552;13.424;2024-01-10T03:14:01;74.43;;;29.50;;
39918;SDS011;25589;51.552;13.424;2024-01-10T03:16:36;71.32;;;28.33;;
39918;SDS011;25589;51.552;13.424;2024-01-10T03:19:02;80.18;;;30.13;;
39918;SDS011;25589;51.552;13.424;2024-01-10T03:21:28;73.95;;;30.13;;
39918;SDS011;25589;51.552;13.424;2024-01-10T03:23:57;70.30;;;29.17;;
39918;SDS011;25589;51.552;13.424;2024-01-10T03:26:23;76.22;;;29.92;;
39918;SDS011;25589;51.552;13.424;2024-01-10T03:28:50;69.85;;;28.15;;
39918;SDS011;25589;51.552;13.424;2024-01-10T03:31:15;70.30;;;29.08;;
39918;SDS011;25589;51.552;13.424;2024-01-10T03:33:41;66.10;;;27.00;;
39918;SDS011;25589;51.552;13.424;2024-01-10T03:36:11;67.85;;;30.00;;
39918;SDS011;25589;51.552;13.424;2024-01-10T03:38:37;80.30;;;30.08;;
39918;SDS011;25589;51.552;13.424;2024-01-10T03:41:02;77.57;;;30.02;;
39918;SDS011;25589;51.552;13.424;2024-01-10T03:43:28;72.22;;;29.10;;
39918;SDS011;25589;51.552;13.424;2024-01-10T03:45:54;74.97;;;29.98;;
39918;SDS011;25589;51.552;13.424;2024-01-10T03:48:20;71.15;;;29.42;;
39918;SDS011;25589;51.552;13.424;2024-01-10T03:50:45;78.30;;;30.77;;
39918;SDS011;25589;51.552;13.424;2024-01-10T03:53:11;66.00;;;28.92;;
39918;SDS011;25589;51.552;13.424;2024-01-10T03:55:36;68.68;;;27.70;;
39918;SDS011;25589;51.552;13.424;2024-01-10T03:58:02;74.07;;;29.75;;
39918;SDS011;25589;51.552;13.424;2024-01-10T04:00:28;72.03;;;29.23;;
39918;SDS011;25589;51.552;13.424;2024-01-10T04:02:53;75.65;;;28.02;;
39918;SDS011;25589;51.552;13.424;2024-01-10T04:05:19;74.90;;;28.95;;
39918;SDS011;25589;51.552;13.424;2024-01-10T04:07:45;71.22;;;28.70;;
39918;SDS011;25589;51.552;13.424;2024-01-10T04:10:12;72.05;;;29.35;;
39918;SDS011;25589;51.552;13.424;2024-01-10T04:12:43;68.95;;;29.40;;
39918;SDS011;25589;51.552;13.424;2024-01-10T04:15:09;72.53;;;28.80;;
39918;SDS011;25589;51.552;13.424;2024-01-10T04:17:36;63.33;;;27.45;;
39918;SDS011;25589;51.552;13.424;2024-01-10T04:20:02;80.40;;;29.77;;
39918;SDS011;25589;51.552;13.424;2024-01-10T04:22:28;71.47;;;28.95;;
39918;SDS011;25589;51.552;13.424;2024-01-10T04:24:55;70.85;;;29.58;;
39918;SDS011;25589;51.552;13.424;2024-01-10T04:27:22;71.53;;;30.25;;
39918;SDS011;25589;51.552;13.424;2024-01-10T04:29:48;70.50;;;29.30;;
39918;SDS011;25589;51.552;13.424;2024-01-10T04:32:13;76.50;;;28.48;;
39918;SDS011;25589;51.552;13.424;2024-01-10T04:34:40;64.40;;;28.60;;
39918;SDS011;25589;51.552;13.424;2024-01-10T04:37:05;74.60;;;28.77;;
39918;SDS011;25589;51.552;13.424;2024-01-10T04:39:32;70.55;;;28.60;;
39918;SDS011;25589;51.552;13.424;2024-01-10T04:41:59;75.40;;;29.00;;
39918;SDS011;25589;51.552;13.424;2024-01-10T04:44:24;75.38;;;28.67;;
39918;SDS011;25589;51.552;13.424;2024-01-10T04:46:50;66.43;;;28.38;;
39918;SDS011;25589;51.552;13.424;2024-01-10T04:49:16;70.82;;;28.77;;
39918;SDS011;25589;51.552;13.424;2024-01-10T04:51:42;71.65;;;29.83;;
39918;SDS011;25589;51.552;13.424;2024-01-10T04:54:08;65.40;;;28.77;;
39918;SDS011;25589;51.552;13.424;2024-01-10T04:56:34;71.80;;;29.45;;
39918;SDS011;25589;51.552;13.424;2024-01-10T04:59:01;68.40;;;28.65;;
39918;SDS011;25589;51.552;13.424;2024-01-10T05:01:27;78.40;;;30.40;;
39918;SDS011;25589;51.552;13.424;2024-01-10T05:03:53;74.35;;;27.98;;
39918;SDS011;25589;51.552;13.424;2024-01-10T05:06:19;71.13;;;28.17;;
39918;SDS011;25589;51.552;13.424;2024-01-10T05:08:45;75.25;;;29.00;;
39918;SDS011;25589;51.552;13.424;2024-01-10T05:11:10;74.22;;;30.98;;
39918;SDS011;25589;51.552;13.424;2024-01-10T05:13:38;70.47;;;28.35;;
39918;SDS011;25589;51.552;13.424;2024-01-10T05:16:04;73.75;;;28.15;;
39918;SDS011;25589;51.552;13.424;2024-01-10T05:18:30;67.18;;;27.08;;
39918;SDS011;25589;51.552;13.424;2024-01-10T05:20:55;77.55;;;29.00;;
39918;SDS011;25589;51.552;13.424;2024-01-10T05:23:22;71.78;;;29.45;;
39918;SDS011;25589;51.552;13.424;2024-01-10T05:25:48;68.65;;;27.30;;
39918;SDS011;25589;51.552;13.424;2024-01-10T05:28:14;73.75;;;29.48;;
39918;SDS011;25589;51.552;13.424;2024-01-10T05:30:40;68.20;;;27.58;;
39918;SDS011;25589;51.552;13.424;2024-01-10T05:33:08;80.30;;;27.73;;
39918;SDS011;25589;51.552;13.424;2024-01-10T05:35:33;122.53;;;43.85;;
39918;SDS011;25589;51.552;13.424;2024-01-10T05:38:00;90.90;;;31.67;;
39918;SDS011;25589;51.552;13.424;2024-01-10T05:40:27;74.05;;;29.73;;
39918;SDS011;25589;51.552;13.424;2024-01-10T05:42:55;70.97;;;28.92;;
39918;SDS011;25589;51.552;13.424;2024-01-10T05:45:20;77.18;;;31.23;;
39918;SDS011;25589;51.552;13.424;2024-01-10T05:47:46;74.22;;;29.85;;
39918;SDS011;25589;51.552;13.424;2024-01-10T05:50:13;72.05;;;30.20;;
39918;SDS011;25589;51.552;13.424;2024-01-10T05:52:39;78.97;;;31.60;;
39918;SDS011;25589;51.552;13.424;2024-01-10T05:55:06;82.38;;;31.17;;
39918;SDS011;25589;51.552;13.424;2024-01-10T05:57:34;65.55;;;28.80;;
39918;SDS011;25589;51.552;13.424;2024-01-10T06:00:00;76.55;;;30.30;;
39918;SDS011;25589;51.552;13.424;2024-01-10T06:02:26;74.18;;;30.08;;
39918;SDS011;25589;51.552;13.424;2024-01-10T06:04:52;94.90;;;34.75;;
39918;SDS011;25589;51.552;13.424;2024-01-10T06:07:18;68.63;;;30.50;;
39918;SDS011;25589;51.552;13.424;2024-01-10T06:09:43;80.07;;;31.27;;
39918;SDS011;25589;51.552;13.424;2024-01-10T06:12:09;76.07;;;30.73;;
39918;SDS011;25589;51.552;13.424;2024-01-10T06:14:35;82.60;;;30.58;;
39918;SDS011;25589;51.552;13.424;2024-01-10T06:17:01;71.90;;;28.48;;
39918;SDS011;25589;51.552;13.424;2024-01-10T06:19:28;74.55;;;30.35;;
39918;SDS011;25589;51.552;13.424;2024-01-10T06:21:56;75.63;;;30.25;;
39918;SDS011;25589;51.552;13.424;2024-01-10T06:24:21;78.28;;;30.63;;
39918;SDS011;25589;51.552;13.424;2024-01-10T06:26:47;80.03;;;30.45;;
39918;SDS011;25589;51.552;13.424;2024-01-10T06:29:15;81.93;;;31.52;;
39918;SDS011;25589;51.552;13.424;2024-01-10T06:31:41;77.05;;;31.38;;
39918;SDS011;25589;51.552;13.424;2024-01-10T06:34:08;91.00;;;32.38;;
39918;SDS011;25589;51.552;13.424;2024-01-10T06:36:34;75.30;;;30.15;;
39918;SDS011;25589;51.552;13.424;2024-01-10T06:39:00;82.00;;;30.60;;
39918;SDS011;25589;51.552;13.424;2024-01-10T06:41:27;75.80;;;30.13;;
39918;SDS011;25589;51.552;13.424;2024-01-10T06:43:53;69.38;;;28.65;;
39918;SDS011;25589;51.552;13.424;2024-01-10T06:46:19;79.45;;;32.83;;
39918;SDS011;25589;51.552;13.424;2024-01-10T06:48:45;72.20;;;29.48;;
39918;SDS011;25589;51.552;13.424;2024-01-10T06:51:13;83.60;;;36.22;;
39918;SDS011;25589;51.552;13.424;2024-01-10T06:53:40;76.53;;;31.60;;
39918;SDS011;25589;51.552;13.424;2024-01-10T06:56:06;75.10;;;29.08;;
39918;SDS011;25589;51.552;13.424;2024-01-10T06:58:32;77.53;;;30.55;;
39918;SDS011;25589;51.552;13.424;2024-01-10T07:00:58;71.93;;;30.30;;
39918;SDS011;25589;51.552;13.424;2024-01-10T07:03:25;76.97;;;30.65;;
39918;SDS011;25589;51.552;13.424;2024-01-10T07:05:51;71.85;;;29.45;;
39918;SDS011;25589;51.552;13.424;2024-01-10T07:08:17;77.63;;;30.40;;
39918;SDS011;25589;51.552;13.424;2024-01-10T07:10:42;81.43;;;30.65;;
39918;SDS011;25589;51.552;13.424;2024-01-10T07:13:08;72.78;;;29.30;;
39918;SDS011;25589;51.552;13.424;2024-01-10T07:15:34;69.88;;;29.45;;
39918;SDS011;25589;51.552;13.424;2024-01-10T07:18:00;75.65;;;29.95;;
39918;SDS011;25589;51.552;13.424;2024-01-10T07:20:25;72.68;;;30.27;;
39918;SDS011;25589;51.552;13.424;2024-01-10T07:22:51;77.82;;;30.98;;
39918;SDS011;25589;51.552;13.424;2024-01-10T07:25:17;77.20;;;29.38;;
39918;SDS011;25589;51.552;13.424;2024-01-10T07:27:43;74.47;;;29.98;;
39918;SDS011;25589;51.552;13.424;2024-01-10T07:30:09;82.78;;;29.58;;
39918;SDS011;25589;51.552;13.424;2024-01-10T07:32:42;73.40;;;29.55;;
39918;SDS011;25589;51.552;13.424;2024-01-10T07:35:09;67.18;;;27.02;;
39918;SDS011;25589;51.552;13.424;2024-01-10T07:37:39;77.80;;;30.25;;
39918;SDS011;25589;51.552;13.424;2024-01-10T07:40:06;87.55;;;33.47;;
39918;SDS011;25589;51.552;13.424;2024-01-10T07:42:34;82.93;;;31.45;;
39918;SDS011;25589;51.552;13.424;2024-01-10T07:45:00;74.43;;;31.10;;
39918;SDS011;25589;51.552;13.424;2024-01-10T07:49:59;83.03;;;29.80;;
39918;SDS011;25589;51.552;13.424;2024-01-10T07:52:25;79.10;;;30.48;;
39918;SDS011;25589;51.552;13.424;2024-01-10T07:54:50;77.75;;;29.50;;
39918;SDS011;25589;51.552;13.424;2024-01-10T07:57:16;70.95;;;29.05;;
39918;SDS011;25589;51.552;13.424;2024-01-10T07:59:43;78.45;;;31.08;;
39918;SDS011;25589;51.552;13.424;2024-01-10T08:02:10;69.93;;;29.48;;
39918;SDS011;25589;51.552;13.424;2024-01-10T08:04:36;73.72;;;30.05;;
39918;SDS011;25589;51.552;13.424;2024-01-10T08:07:02;79.65;;;32.03;;
39918;SDS011;25589;51.552;13.424;2024-01-10T08:09:28;73.95;;;30.80;;
39918;SDS011;25589;51.552;13.424;2024-01-10T08:11:54;78.88;;;31.10;;
39918;SDS011;25589;51.552;13.424;2024-01-10T08:14:19;72.30;;;30.70;;
39918;SDS011;25589;51.552;13.424;2024-01-10T08:16:45;85.85;;;34.35;;
39918;SDS011;25589;51.552;13.424;2024-01-10T08:19:11;79.63;;;32.25;;
39918;SDS011;25589;51.552;13.424;2024-01-10T08:21:36;79.30;;;33.97;;
39918;SDS011;25589;51.552;13.424;2024-01-10T08:24:02;78.35;;;31.30;;
39918;SDS011;25589;51.552;13.424;2024-01-10T08:26:28;79.78;;;31.38;;
39918;SDS011;25589;51.552;13.424;2024-01-10T08:28:55;74.32;;;29.73;;
39918;SDS011;25589;51.552;13.424;2024-01-10T08:31:21;77.72;;;30.75;;
39918;SDS011;25589;51.552;13.424;2024-01-10T08:33:48;78.78;;;32.47;;
39918;SDS011;25589;51.552;13.424;2024-01-10T08:36:13;88.75;;;33.22;;
39918;SDS011;25589;51.552;13.424;2024-01-10T08:38:39;84.43;;;33.60;;
39918;SDS011;25589;51.552;13.424;2024-01-10T08:41:09;76.75;;;31.35;;
39918;SDS011;25589;51.552;13.424;2024-01-10T08:43:36;82.38;;;32.45;;
39918;SDS011;25589;51.552;13.424;2024-01-10T08:46:08;83.07;;;31.55;;
39918;SDS011;25589;51.552;13.424;2024-01-10T08:48:34;73.38;;;32.08;;
39918;SDS011;25589;51.552;13.424;2024-01-10T08:51:01;74.60;;;29.70;;
39918;SDS011;25589;51.552;13.424;2024-01-10T08:53:27;82.55;;;32.60;;
39918;SDS011;25589;51.552;13.424;2024-01-10T08:55:53;86.47;;;33.45;;
39918;SDS011;25589;51.552;13.424;2024-01-10T08:58:18;80.43;;;31.83;;
39918;SDS011;25589;51.552;13.424;2024-01-10T09:00:44;85.00;;;33.53;;
39918;SDS011;25589;51.552;13.424;2024-01-10T09:03:10;80.45;;;33.88;;
39918;SDS011;25589;51.552;13.424;2024-01-10T09:05:35;82.45;;;34.20;;
39918;SDS011;25589;51.552;13.424;2024-01-10T09:08:01;81.15;;;33.72;;
39918;SDS011;25589;51.552;13.424;2024-01-10T09:10:28;130.77;;;51.38;;
39918;SDS011;25589;51.552;13.424;2024-01-10T09:12:54;141.10;;;53.15;;
39918;SDS011;25589;51.552;13.424;2024-01-10T09:15:19;86.18;;;34.15;;
39918;SDS011;25589;51.552;13.424;2024-01-10T09:17:45;91.38;;;34.78;;
39918;SDS011;25589;51.552;13.424;2024-01-10T09:20:11;88.85;;;36.20;;
39918;SDS011;25589;51.552;13.424;2024-01-10T09:22:38;86.32;;;35.08;;
39918;SDS011;25589;51.552;13.424;2024-01-10T09:25:05;85.13;;;34.67;;
39918;SDS011;25589;51.552;13.424;2024-01-10T09:27:31;85.43;;;34.42;;
39918;SDS011;25589;51.552;13.424;2024-01-10T09:29:59;82.22;;;34.65;;
39918;SDS011;25589;51.552;13.424;2024-01-10T09:32:27;115.15;;;43.83;;
39918;SDS011;25589;51.552;13.424;2024-01-10T09:34:53;88.78;;;36.30;;
39918;SDS011;25589;51.552;13.424;2024-01-10T09:37:20;87.30;;;37.15;;
39918;SDS011;25589;51.552;13.424;2024-01-10T09:39:45;80.00;;;33.63;;
39918;SDS011;25589;51.552;13.424;2024-01-10T09:42:11;115.72;;;46.05;;
39918;SDS011;25589;51.552;13.424;2024-01-10T09:44:36;88.75;;;36.63;;
39918;SDS011;25589;51.552;13.424;2024-01-10T09:47:02;76.95;;;33.60;;
39918;SDS011;25589;51.552;13.424;2024-01-10T09:49:28;82.50;;;33.35;;
39918;SDS011;25589;51.552;13.424;2024-01-10T09:51:57;79.43;;;35.00;;
39918;SDS011;25589;51.552;13.424;2024-01-10T09:54:25;73.35;;;31.95;;
39918;SDS011;25589;51.552;13.424;2024-01-10T09:56:54;74.75;;;32.15;;
39918;SDS011;25589;51.552;13.424;2024-01-10T09:59:21;86.13;;;38.38;;
39918;SDS011;25589;51.552;13.424;2024-01-10T10:01:46;82.43;;;36.60;;
39918;SDS011;25589;51.552;13.424;2024-01-10T10:04:12;79.75;;;36.95;;
39918;SDS011;25589;51.552;13.424;2024-01-10T10:06:40;77.78;;;34.85;;
39918;SDS011;25589;51.552;13.424;2024-01-10T10:09:06;77.85;;;34.17;;
39918;SDS011;25589;51.552;13.424;2024-01-10T10:11:33;83.20;;;34.75;;
39918;SDS011;25589;51.552;13.424;2024-01-10T10:14:15;75.50;;;34.58;;
39918;SDS011;25589;51.552;13.424;2024-01-10T10:19:08;73.07;;;32.75;;
39918;SDS011;25589;51.552;13.424;2024-01-10T10:21:34;74.28;;;34.80;;
39918;SDS011;25589;51.552;13.424;2024-01-10T10:24:00;79.38;;;33.42;;
39918;SDS011;25589;51.552;13.424;2024-01-10T10:26:29;77.72;;;32.65;;
39918;SDS011;25589;51.552;13.424;2024-01-10T10:28:58;73.30;;;32.65;;
39918;SDS011;25589;51.552;13.424;2024-01-10T10:31:24;81.88;;;34.10;;
39918;SDS011;25589;51.552;13.424;2024-01-10T10:33:50;81.07;;;34.90;;
39918;SDS011;25589;51.552;13.424;2024-01-10T10:36:16;75.95;;;34.92;;
39918;SDS011;25589;51.552;13.424;2024-01-10T10:38:42;82.60;;;35.05;;
39918;SDS011;25589;51.552;13.424;2024-01-10T10:41:08;75.70;;;35.28;;
39918;SDS011;25589;51.552;13.424;2024-01-10T10:43:35;79.28;;;33.70;;
39918;SDS011;25589;51.552;13.424;2024-01-10T10:46:02;78.80;;;34.78;;
39918;SDS011;25589;51.552;13.424;2024-01-10T10:48:31;81.32;;;35.33;;
39918;SDS011;25589;51.552;13.424;2024-01-10T10:51:07;80.53;;;35.95;;
39918;SDS011;25589;51.552;13.424;2024-01-10T10:53:35;88.50;;;37.70;;
39918;SDS011;25589;51.552;13.424;2024-01-10T10:56:02;90.30;;;37.47;;
39918;SDS011;25589;51.552;13.424;2024-01-10T10:58:31;98.03;;;38.55;;
39918;SDS011;25589;51.552;13.424;2024-01-10T11:01:00;94.00;;;38.00;;
39918;SDS011;25589;51.552;13.424;2024-01-10T11:03:27;77.10;;;34.50;;
39918;SDS011;25589;51.552;13.424;2024-01-10T11:05:56;76.07;;;34.83;;
39918;SDS011;25589;51.552;13.424;2024-01-10T11:08:25;80.32;;;34.58;;
39918;SDS011;25589;51.552;13.424;2024-01-10T11:10:52;82.00;;;34.08;;
39918;SDS011;25589;51.552;13.424;2024-01-10T11:13:25;76.15;;;34.58;;
39918;SDS011;25589;51.552;13.424;2024-01-10T11:21:23;75.57;;;31.95;;
39918;SDS011;25589;51.552;13.424;2024-01-10T11:24:09;74.47;;;33.70;;
39918;SDS011;25589;51.552;13.424;2024-01-10T11:26:38;70.13;;;33.85;;
39918;SDS011;25589;51.552;13.424;2024-01-10T11:29:04;81.30;;;33.78;;
39918;SDS011;25589;51.552;13.424;2024-01-10T11:31:31;68.75;;;33.28;;
39918;SDS011;25589;51.552;13.424;2024-01-10T11:33:57;78.40;;;36.20;;
39918;SDS011;25589;51.552;13.424;2024-01-10T11:36:25;75.72;;;33.55;;
39918;SDS011;25589;51.552;13.424;2024-01-10T11:41:34;70.10;;;32.38;;
39918;SDS011;25589;51.552;13.424;2024-01-10T11:46:52;76.30;;;33.67;;
39918;SDS011;25589;51.552;13.424;2024-01-10T11:49:20;74.10;;;33.20;;
39918;SDS011;25589;51.552;13.424;2024-01-10T11:51:51;72.22;;;32.30;;
39918;SDS011;25589;51.552;13.424;2024-01-10T11:57:20;75.55;;;34.17;;
39918;SDS011;25589;51.552;13.424;2024-01-10T11:59:52;70.07;;;33.17;;
39918;SDS011;25589;51.552;13.424;2024-01-10T12:02:19;78.82;;;32.78;;
39918;SDS011;25589;51.552;13.424;2024-01-10T12:04:47;70.63;;;32.25;;
39918;SDS011;25589;51.552;13.424;2024-01-10T12:07:13;69.35;;;33.30;;
39918;SDS011;25589;51.552;13.424;2024-01-10T12:09:39;71.53;;;35.08;;
39918;SDS011;25589;51.552;13.424;2024-01-10T12:12:06;66.20;;;31.38;;
39918;SDS011;25589;51.552;13.424;2024-01-10T12:14:33;70.68;;;34.47;;
39918;SDS011;25589;51.552;13.424;2024-01-10T12:17:00;72.30;;;33.15;;
39918;SDS011;25589;51.552;13.424;2024-01-10T12:19:25;71.40;;;32.63;;
39918;SDS011;25589;51.552;13.424;2024-01-10T12:21:52;71.05;;;32.72;;
39918;SDS011;25589;51.552;13.424;2024-01-10T12:24:18;69.63;;;32.17;;
39918;SDS011;25589;51.552;13.424;2024-01-10T12:26:45;72.65;;;32.55;;
39918;SDS011;25589;51.552;13.424;2024-01-10T12:29:18;71.47;;;33.10;;
39918;SDS011;25589;51.552;13.424;2024-01-10T12:31:47;71.22;;;33.42;;
39918;SDS011;25589;51.552;13.424;2024-01-10T12:34:13;74.03;;;33.70;;
39918;SDS011;25589;51.552;13.424;2024-01-10T12:36:40;71.90;;;33.80;;
39918;SDS011;25589;51.552;13.424;2024-01-10T12:39:06;67.57;;;32.20;;
39918;SDS011;25589;51.552;13.424;2024-01-10T12:41:32;70.03;;;32.50;;
39918;SDS011;25589;51.552;13.424;2024-01-10T12:43:59;71.45;;;33.88;;
39918;SDS011;25589;51.552;13.424;2024-01-10T12:46:29;62.20;;;33.05;;
39918;SDS011;25589;51.552;13.424;2024-01-10T12:48:59;75.35;;;34.53;;
39918;SDS011;25589;51.552;13.424;2024-01-10T12:51:27;76.82;;;34.10;;
39918;SDS011;25589;51.552;13.424;2024-01-10T12:53:57;76.50;;;37.33;;
39918;SDS011;25589;51.552;13.424;2024-01-10T12:56:26;69.05;;;33.85;;
39918;SDS011;25589;51.552;13.424;2024-01-10T12:58:53;65.78;;;32.25;;
39918;SDS011;25589;51.552;13.424;2024-01-10T13:01:20;70.47;;;32.60;;
39918;SDS011;25589;51.552;13.424;2024-01-10T13:03:46;74.05;;;32.22;;
39918;SDS011;25589;51.552;13.424;2024-01-10T13:06:13;68.25;;;33.25;;
39918;SDS011;25589;51.552;13.424;2024-01-10T13:08:40;67.00;;;34.08;;
39918;SDS011;25589;51.552;13.424;2024-01-10T13:11:07;68.10;;;34.03;;
39918;SDS011;25589;51.552;13.424;2024-01-10T13:13:37;71.82;;;33.95;;
39918;SDS011;25589;51.552;13.424;2024-01-10T13:16:04;68.95;;;33.05;;
39918;SDS011;25589;51.552;13.424;2024-01-10T13:18:30;108.93;;;46.65;;
39918;SDS011;25589;51.552;13.424;2024-01-10T13:20:56;80.70;;;38.00;;
39918;SDS011;25589;51.552;13.424;2024-01-10T13:23:21;71.00;;;32.90;;
39918;SDS011;25589;51.552;13.424;2024-01-10T13:25:48;67.93;;;34.25;;
39918;SDS011;25589;51.552;13.424;2024-01-10T13:28:14;69.55;;;33.17;;
39918;SDS011;25589;51.552;13.424;2024-01-10T13:30:40;70.40;;;34.72;;
39918;SDS011;25589;51.552;13.424;2024-01-10T13:33:06;73.18;;;34.05;;
39918;SDS011;25589;51.552;13.424;2024-01-10T13:35:34;72.63;;;32.97;;
39918;SDS011;25589;51.552;13.424;2024-01-10T13:38:00;64.95;;;33.15;;
39918;SDS011;25589;51.552;13.424;2024-01-10T13:40:26;68.68;;;35.08;;
39918;SDS011;25589;51.552;13.424;2024-01-10T13:42:51;71.05;;;34.40;;
39918;SDS011;25589;51.552;13.424;2024-01-10T13:45:18;67.22;;;33.85;;
39918;SDS011;25589;51.552;13.424;2024-01-10T13:47:44;72.25;;;34.25;;
39918;SDS011;25589;51.552;13.424;2024-01-10T13:50:10;74.70;;;34.40;;
39918;SDS011;25589;51.552;13.424;2024-01-10T13:52:36;69.43;;;33.13;;
39918;SDS011;25589;51.552;13.424;2024-01-10T13:55:02;70.25;;;34.53;;
39918;SDS011;25589;51.552;13.424;2024-01-10T13:57:30;74.40;;;34.42;;
39918;SDS011;25589;51.552;13.424;2024-01-10T14:00:00;74.65;;;35.55;;
39918;SDS011;25589;51.552;13.424;2024-01-10T14:02:26;74.00;;;33.45;;
39918;SDS011;25589;51.552;13.424;2024-01-10T14:04:52;75.43;;;34.72;;
39918;SDS011;25589;51.552;13.424;2024-01-10T14:07:19;76.38;;;37.47;;
39918;SDS011;25589;51.552;13.424;2024-01-10T14:09:45;76.28;;;35.80;;
39918;SDS011;25589;51.552;13.424;2024-01-10T14:12:11;73.93;;;34.80;;
39918;SDS011;25589;51.552;13.424;2024-01-10T14:14:37;79.30;;;35.83;;
39918;SDS011;25589;51.552;13.424;2024-01-10T14:17:03;75.70;;;34.80;;
39918;SDS011;25589;51.552;13.424;2024-01-10T14:19:32;71.72;;;36.70;;
39918;SDS011;25589;51.552;13.424;2024-01-10T14:21:58;79.05;;;34.85;;
39918;SDS011;25589;51.552;13.424;2024-01-10T14:24:24;74.65;;;35.25;;